createdAt,value
2023-08-09T00:00:50.949Z,7.70
2023-08-09T00:03:18.312Z,6.80
2023-08-09T00:05:44.515Z,6.53
2023-08-09T00:08:11.096Z,6.73
2023-08-09T00:10:37.283Z,4.77
2023-08-09T00:13:03.533Z,5.60
2023-08-09T00:15:29.709Z,4.37
2023-08-09T00:17:56.221Z,4.27
2023-08-09T00:20:22.386Z,4.03
2023-08-09T00:22:48.584Z,4.07
2023-08-09T00:25:14.898Z,3.70
2023-08-09T00:27:41.196Z,2.67
2023-08-09T00:30:07.489Z,2.50
2023-08-09T00:32:33.853Z,3.00
2023-08-09T00:35:00.043Z,2.43
2023-08-09T00:37:27.408Z,2.40
2023-08-09T00:39:53.605Z,2.60
2023-08-09T00:42:19.784Z,2.53
2023-08-09T00:44:45.930Z,2.70
2023-08-09T00:47:12.084Z,2.63
2023-08-09T00:49:38.225Z,2.60
2023-08-09T00:52:04.656Z,2.83
2023-08-09T00:54:30.803Z,3.03
2023-08-09T00:56:56.967Z,3.17
2023-08-09T00:59:23.150Z,2.90
2023-08-09T01:01:49.403Z,2.70
2023-08-09T01:04:15.576Z,2.77
2023-08-09T01:06:41.713Z,2.80
2023-08-09T01:09:07.876Z,2.80
2023-08-09T01:11:34.027Z,2.60
2023-08-09T01:14:00.169Z,3.00
2023-08-09T01:16:26.324Z,3.40
2023-08-09T01:18:52.485Z,2.63
2023-08-09T01:21:18.635Z,2.80
2023-08-09T01:23:44.791Z,3.20
2023-08-09T01:26:10.932Z,2.70
2023-08-09T01:28:37.095Z,2.60
2023-08-09T01:31:03.237Z,2.97
2023-08-09T01:33:29.422Z,2.90
2023-08-09T01:35:55.570Z,3.03
2023-08-09T01:38:21.709Z,3.40
2023-08-09T01:40:47.856Z,3.80
2023-08-09T01:43:14.032Z,3.83
2023-08-09T01:45:40.162Z,3.50
2023-08-09T01:48:06.306Z,3.50
2023-08-09T01:50:32.496Z,3.33
2023-08-09T01:52:58.678Z,3.53
2023-08-09T01:55:24.840Z,3.47
2023-08-09T01:57:50.997Z,3.40
2023-08-09T02:00:18.340Z,3.50
2023-08-09T02:02:44.526Z,3.50
2023-08-09T02:05:10.739Z,4.03
2023-08-09T02:07:36.914Z,3.70
2023-08-09T02:10:03.057Z,3.67
2023-08-09T02:12:29.198Z,3.70
2023-08-09T02:14:55.456Z,4.77
2023-08-09T02:17:21.741Z,4.33
2023-08-09T02:19:47.878Z,4.10
2023-08-09T02:22:14.041Z,4.90
2023-08-09T02:24:40.180Z,5.03
2023-08-09T02:27:06.334Z,5.00
2023-08-09T02:29:32.582Z,5.07
2023-08-09T02:31:58.765Z,6.03
2023-08-09T02:34:24.955Z,5.87
2023-08-09T02:36:51.100Z,7.40
2023-08-09T02:39:17.261Z,7.17
2023-08-09T02:41:43.529Z,8.03
2023-08-09T02:44:09.692Z,8.63
2023-08-09T02:46:35.892Z,8.77
2023-08-09T02:49:02.184Z,9.97
2023-08-09T02:51:28.723Z,9.77
2023-08-09T02:53:55.185Z,9.17
2023-08-09T02:56:21.315Z,10.80
2023-08-09T02:58:47.868Z,9.73
2023-08-09T03:01:14.099Z,10.00
2023-08-09T03:03:40.490Z,10.27
2023-08-09T03:06:06.761Z,10.87
2023-08-09T03:08:32.901Z,10.40
2023-08-09T03:10:59.070Z,11.20
2023-08-09T03:13:25.206Z,12.50
2023-08-09T03:15:51.383Z,12.30
2023-08-09T03:18:17.544Z,13.70
2023-08-09T03:20:43.744Z,13.23
2023-08-09T03:23:09.946Z,12.20
2023-08-09T03:25:36.131Z,12.60
2023-08-09T03:28:02.344Z,14.37
2023-08-09T03:30:28.505Z,14.50
2023-08-09T03:32:54.668Z,15.53
2023-08-09T03:35:20.852Z,16.40
2023-08-09T03:37:47.010Z,15.50
2023-08-09T03:40:13.166Z,15.83
2023-08-09T03:42:39.312Z,16.50
2023-08-09T03:45:05.486Z,17.13
2023-08-09T03:47:31.626Z,16.67
2023-08-09T03:49:57.810Z,16.53
2023-08-09T03:52:23.960Z,17.57
2023-08-09T03:54:50.145Z,15.93
2023-08-09T03:57:16.287Z,14.43
2023-08-09T03:59:42.573Z,15.07
2023-08-09T04:02:08.710Z,15.83
2023-08-09T04:04:34.914Z,15.07
2023-08-09T04:07:01.383Z,14.97
2023-08-09T04:09:27.822Z,15.43
2023-08-09T04:11:53.956Z,15.93
2023-08-09T04:14:20.098Z,17.37
2023-08-09T04:16:46.243Z,16.77
2023-08-09T04:19:12.396Z,17.70
2023-08-09T04:21:38.657Z,17.33
2023-08-09T04:24:04.812Z,19.43
2023-08-09T04:26:30.959Z,19.03
2023-08-09T04:28:57.112Z,18.30
2023-08-09T04:31:23.323Z,17.23
2023-08-09T04:33:49.475Z,19.47
2023-08-09T04:36:15.632Z,20.30
2023-08-09T04:38:41.768Z,21.33
2023-08-09T04:41:07.922Z,20.60
2023-08-09T04:43:34.074Z,20.10
2023-08-09T04:46:00.266Z,19.00
2023-08-09T04:48:26.414Z,18.40
2023-08-09T04:50:54.885Z,17.73
2023-08-09T04:53:21.285Z,19.13
2023-08-09T04:55:47.471Z,18.90
2023-08-09T04:58:13.621Z,20.87
2023-08-09T05:00:39.828Z,20.77
2023-08-09T05:03:06.299Z,22.13
2023-08-09T05:05:32.497Z,21.63
2023-08-09T05:07:58.627Z,23.50
2023-08-09T05:10:24.779Z,23.13
2023-08-09T05:12:50.927Z,21.67
2023-08-09T05:15:17.106Z,19.23
2023-08-09T05:17:43.278Z,19.10
2023-08-09T05:20:09.464Z,20.70
2023-08-09T05:22:35.629Z,19.70
2023-08-09T05:25:01.780Z,17.50
2023-08-09T05:27:27.959Z,20.70
2023-08-09T05:29:54.123Z,18.00
2023-08-09T05:32:20.259Z,15.90
2023-08-09T05:34:46.405Z,16.53
2023-08-09T05:37:12.575Z,16.50
2023-08-09T05:39:38.736Z,16.37
2023-08-09T05:42:04.979Z,15.13
2023-08-09T05:44:31.177Z,16.97
2023-08-09T05:46:57.411Z,15.60
2023-08-09T05:49:23.586Z,15.07
2023-08-09T05:51:49.755Z,14.57
2023-08-09T05:54:15.900Z,14.63
2023-08-09T05:56:42.042Z,14.67
2023-08-09T05:59:08.171Z,15.93
2023-08-09T06:01:34.305Z,14.40
2023-08-09T06:04:00.451Z,16.57
2023-08-09T06:06:26.626Z,15.10
2023-08-09T06:08:52.750Z,15.63
2023-08-09T06:11:18.901Z,16.67
2023-08-09T06:13:45.029Z,16.40
2023-08-09T06:16:11.226Z,17.13
2023-08-09T06:18:37.418Z,15.13
2023-08-09T06:21:03.559Z,16.17
2023-08-09T06:23:29.697Z,13.23
2023-08-09T06:25:55.878Z,13.40
2023-08-09T06:28:22.019Z,11.87
2023-08-09T06:30:48.209Z,12.63
2023-08-09T06:33:14.379Z,13.00
2023-08-09T06:35:40.550Z,15.57
2023-08-09T06:38:15.348Z,13.43
2023-08-09T06:40:42.331Z,11.07
2023-08-09T06:43:08.492Z,12.00
2023-08-09T06:45:34.644Z,12.23
2023-08-09T06:48:00.836Z,11.67
2023-08-09T06:50:27.047Z,10.80
2023-08-09T06:52:53.270Z,10.80
2023-08-09T06:55:19.411Z,10.60
2023-08-09T06:57:45.554Z,10.23
2023-08-09T07:00:11.716Z,11.37
2023-08-09T07:02:37.937Z,11.00
2023-08-09T07:05:04.127Z,11.33
2023-08-09T07:07:30.337Z,12.30
2023-08-09T07:09:56.488Z,11.13
2023-08-09T07:12:22.639Z,11.17
2023-08-09T07:14:48.788Z,12.63
2023-08-09T07:17:14.953Z,11.90
2023-08-09T07:19:41.090Z,11.87
2023-08-09T07:22:07.210Z,12.00
2023-08-09T07:24:33.364Z,12.23
2023-08-09T07:26:59.530Z,11.63
2023-08-09T07:29:25.676Z,13.33
2023-08-09T07:31:51.859Z,12.73
2023-08-09T07:34:18.065Z,11.97
2023-08-09T07:36:44.231Z,14.00
2023-08-09T07:39:10.365Z,11.80
2023-08-09T07:41:36.494Z,11.27
2023-08-09T07:44:02.641Z,10.10
2023-08-09T07:46:28.880Z,10.37
2023-08-09T07:48:55.083Z,10.13
2023-08-09T07:51:21.227Z,11.57
2023-08-09T07:53:47.373Z,9.70
2023-08-09T07:56:13.544Z,9.57
2023-08-09T07:58:39.701Z,10.10
2023-08-09T08:01:05.834Z,9.70
2023-08-09T08:03:32.060Z,10.07
2023-08-09T08:05:58.360Z,10.43
2023-08-09T08:08:24.522Z,10.53
2023-08-09T08:10:50.659Z,9.47
2023-08-09T08:13:16.806Z,9.67
2023-08-09T08:15:43.039Z,9.67
2023-08-09T08:18:09.208Z,9.97
2023-08-09T08:20:35.376Z,9.43
2023-08-09T08:23:01.543Z,8.87
2023-08-09T08:25:27.703Z,9.27
2023-08-09T08:27:53.907Z,9.23
2023-08-09T08:30:20.081Z,9.10
2023-08-09T08:32:46.275Z,8.53
2023-08-09T08:35:12.415Z,8.90
2023-08-09T08:37:38.588Z,9.60
2023-08-09T08:40:04.797Z,9.23
2023-08-09T08:42:31.015Z,8.67
2023-08-09T08:44:57.165Z,8.67
2023-08-09T08:47:23.406Z,7.73
2023-08-09T08:49:49.646Z,8.07
2023-08-09T08:52:15.779Z,7.73
2023-08-09T08:54:42.318Z,7.00
2023-08-09T08:57:09.095Z,7.00
2023-08-09T08:59:35.273Z,7.17
2023-08-09T09:02:01.770Z,6.93
2023-08-09T09:04:28.158Z,7.37
2023-08-09T09:06:54.300Z,7.23
2023-08-09T09:09:20.436Z,6.73
2023-08-09T09:11:46.574Z,6.10
2023-08-09T09:14:12.716Z,6.53
2023-08-09T09:16:38.839Z,6.33
2023-08-09T09:19:04.989Z,7.07
2023-08-09T09:21:31.142Z,6.67
2023-08-09T09:23:57.376Z,6.80
2023-08-09T09:26:23.516Z,6.83
2023-08-09T09:28:49.685Z,5.70
2023-08-09T09:31:15.917Z,4.93
2023-08-09T09:33:42.111Z,5.33
2023-08-09T09:36:08.274Z,5.60
2023-08-09T09:38:34.477Z,5.27
2023-08-09T09:41:00.615Z,5.00
2023-08-09T09:43:26.743Z,6.43
2023-08-09T09:45:52.890Z,5.77
2023-08-09T09:48:19.219Z,5.00
2023-08-09T09:50:45.533Z,3.83
2023-08-09T09:53:11.656Z,3.50
2023-08-09T09:55:37.806Z,3.90
2023-08-09T09:58:03.939Z,4.20
2023-08-09T10:00:30.091Z,4.20
2023-08-09T10:02:56.461Z,4.77
2023-08-09T10:05:23.133Z,4.30
2023-08-09T10:07:53.180Z,4.90
2023-08-09T10:10:20.045Z,5.40
2023-08-09T10:12:46.186Z,4.43
2023-08-09T10:15:12.334Z,4.50
2023-08-09T10:17:38.559Z,4.07
2023-08-09T10:20:04.780Z,4.57
2023-08-09T10:22:33.736Z,4.90
2023-08-09T10:25:03.181Z,4.40
2023-08-09T10:27:29.324Z,4.57
2023-08-09T10:29:55.502Z,5.00
2023-08-09T10:32:21.768Z,4.60
2023-08-09T10:34:47.983Z,4.63
2023-08-09T10:37:14.132Z,4.33
2023-08-09T10:39:40.286Z,4.30
2023-08-09T10:42:06.952Z,3.90
2023-08-09T10:44:34.638Z,4.23
2023-08-09T10:47:00.791Z,3.70
2023-08-09T10:49:26.934Z,4.23
2023-08-09T10:51:53.074Z,4.43
2023-08-09T10:54:19.220Z,4.47
2023-08-09T10:56:45.372Z,4.60
2023-08-09T10:59:11.498Z,4.60
2023-08-09T11:01:37.690Z,3.73
2023-08-09T11:04:04.047Z,3.70
2023-08-09T11:06:30.241Z,4.30
2023-08-09T11:08:56.371Z,4.60
2023-08-09T11:11:22.531Z,4.77
2023-08-09T11:13:55.958Z,4.37
2023-08-09T11:16:23.003Z,4.47
2023-08-09T11:18:49.314Z,4.43
2023-08-09T11:21:15.475Z,4.57
2023-08-09T11:23:41.605Z,5.63
2023-08-09T11:26:07.745Z,4.90
2023-08-09T11:28:33.869Z,5.77
2023-08-09T11:31:00.046Z,5.77
2023-08-09T11:33:26.225Z,5.10
2023-08-09T11:35:52.376Z,4.40
2023-08-09T11:38:18.522Z,5.07
2023-08-09T11:40:44.686Z,5.10
2023-08-09T11:43:10.840Z,5.03
2023-08-09T11:45:36.988Z,5.90
2023-08-09T11:48:03.194Z,5.43
2023-08-09T11:50:29.382Z,5.33
2023-08-09T11:52:55.544Z,5.23
2023-08-09T11:55:21.669Z,5.97
2023-08-09T11:57:47.812Z,6.03
2023-08-09T12:00:16.978Z,6.23
2023-08-09T12:02:43.592Z,6.50
2023-08-09T12:05:09.764Z,6.90
2023-08-09T12:07:35.925Z,6.50
2023-08-09T12:10:02.055Z,6.47
2023-08-09T12:12:28.232Z,6.80
2023-08-09T12:14:54.377Z,6.20
2023-08-09T12:17:22.724Z,6.37
2023-08-09T12:19:49.633Z,6.20
2023-08-09T12:22:15.826Z,5.63
2023-08-09T12:24:41.988Z,5.50
2023-08-09T12:27:08.137Z,5.03
2023-08-09T12:29:34.273Z,5.20
2023-08-09T12:32:00.881Z,5.10
2023-08-09T12:34:27.397Z,7.07
2023-08-09T12:36:53.533Z,7.17
2023-08-09T12:39:19.693Z,6.90
2023-08-09T12:41:45.834Z,7.17
2023-08-09T12:44:11.987Z,7.47
2023-08-09T12:46:38.220Z,6.67
2023-08-09T12:49:04.446Z,7.57
2023-08-09T12:51:30.573Z,7.38
2023-08-09T12:53:56.736Z,7.72
2023-08-09T12:56:25.560Z,8.00
2023-08-09T12:58:52.115Z,8.60
2023-08-09T13:01:18.282Z,8.40
2023-08-09T13:03:44.528Z,8.35
2023-08-09T13:06:10.654Z,8.13
2023-08-09T13:08:36.854Z,9.50
2023-08-09T13:11:03.014Z,7.57
2023-08-09T13:13:29.190Z,7.00
2023-08-09T13:15:55.364Z,6.88
2023-08-09T13:18:21.520Z,6.55
2023-08-09T13:20:47.664Z,5.80
2023-08-09T13:23:13.785Z,5.80
2023-08-09T13:25:39.986Z,5.68
2023-08-09T13:28:06.174Z,5.95
2023-08-09T13:30:32.329Z,5.75
2023-08-09T13:32:58.500Z,5.10
2023-08-09T13:35:24.712Z,5.85
2023-08-09T13:37:50.928Z,5.63
2023-08-09T13:40:17.102Z,6.25
2023-08-09T13:42:43.265Z,5.75
2023-08-09T13:45:09.547Z,5.95
2023-08-09T13:47:35.777Z,6.00
2023-08-09T13:50:01.955Z,5.88
2023-08-09T13:52:28.136Z,5.35
2023-08-09T13:54:54.358Z,5.32
2023-08-09T13:57:20.493Z,5.85
2023-08-09T13:59:46.651Z,6.13
2023-08-09T14:02:12.782Z,5.78
2023-08-09T14:04:38.944Z,5.95
2023-08-09T14:07:05.112Z,6.38
2023-08-09T14:09:31.261Z,6.40
2023-08-09T14:11:57.421Z,6.35
2023-08-09T14:14:26.041Z,6.35
2023-08-09T14:16:52.223Z,5.85
2023-08-09T14:19:18.384Z,6.55
2023-08-09T14:21:44.574Z,6.30
2023-08-09T14:24:10.717Z,6.55
2023-08-09T14:26:36.874Z,6.22
2023-08-09T14:29:03.016Z,6.43
2023-08-09T14:31:29.225Z,6.13
2023-08-09T14:33:55.388Z,6.30
2023-08-09T14:36:21.540Z,5.80
2023-08-09T14:38:47.689Z,6.18
2023-08-09T14:41:13.902Z,5.63
2023-08-09T14:43:40.046Z,5.28
2023-08-09T14:46:06.251Z,5.20
2023-08-09T14:48:32.433Z,5.22
2023-08-09T14:50:58.580Z,4.65
2023-08-09T14:53:24.750Z,5.03
2023-08-09T14:55:50.890Z,4.93
2023-08-09T14:58:17.044Z,5.07
2023-08-09T15:00:43.537Z,4.88
2023-08-09T15:03:10.048Z,5.20
2023-08-09T15:05:36.264Z,4.57
2023-08-09T15:08:02.499Z,4.43
2023-08-09T15:10:28.654Z,3.80
2023-08-09T15:12:54.796Z,4.03
2023-08-09T15:15:20.926Z,4.50
2023-08-09T15:17:47.283Z,4.38
2023-08-09T15:20:13.494Z,4.25
2023-08-09T15:22:39.663Z,4.63
2023-08-09T15:25:05.794Z,4.03
2023-08-09T15:27:31.952Z,4.35
2023-08-09T15:29:58.090Z,3.92
2023-08-09T15:32:24.241Z,4.57
2023-08-09T15:34:50.395Z,4.80
2023-08-09T15:37:16.585Z,4.25
2023-08-09T15:39:42.758Z,4.30
2023-08-09T15:42:17.777Z,4.07
2023-08-09T15:44:45.024Z,3.92
2023-08-09T15:47:11.475Z,4.35
2023-08-09T15:49:37.685Z,4.30
2023-08-09T15:52:03.868Z,4.45
2023-08-09T15:54:30.017Z,3.72
2023-08-09T15:56:56.175Z,3.90
2023-08-09T15:59:22.359Z,4.00
2023-08-09T16:01:48.532Z,3.87
2023-08-09T16:04:14.741Z,3.70
2023-08-09T16:06:40.962Z,3.63
2023-08-09T16:09:07.333Z,4.35
2023-08-09T16:11:33.512Z,3.88
2023-08-09T16:13:59.656Z,3.90
2023-08-09T16:16:33.865Z,4.22
2023-08-09T16:19:00.372Z,4.10
2023-08-09T16:21:26.510Z,4.90
2023-08-09T16:23:52.693Z,4.57
2023-08-09T16:26:18.897Z,3.97
2023-08-09T16:28:45.178Z,4.13
2023-08-09T16:33:40.106Z,3.90
2023-08-09T16:36:06.315Z,4.10
2023-08-09T16:38:34.982Z,4.07
2023-08-09T16:41:01.515Z,4.47
2023-08-09T16:43:27.704Z,4.80
2023-08-09T16:45:53.843Z,5.03
2023-08-09T16:48:20.013Z,5.00
2023-08-09T16:50:46.141Z,4.80
2023-08-09T16:53:12.402Z,4.90
2023-08-09T16:55:38.775Z,5.10
2023-08-09T16:58:05.009Z,4.60
2023-08-09T17:00:31.387Z,4.40
2023-08-09T17:02:57.849Z,4.37
2023-08-09T17:05:24.062Z,4.60
2023-08-09T17:07:50.235Z,4.30
2023-08-09T17:10:16.379Z,4.00
2023-08-09T17:12:42.522Z,5.10
2023-08-09T17:15:08.720Z,4.70
2023-08-09T17:17:35.047Z,4.45
2023-08-09T17:20:01.303Z,4.90
2023-08-09T17:22:27.440Z,4.50
2023-08-09T17:24:53.613Z,4.20
2023-08-09T17:27:19.745Z,4.63
2023-08-09T17:29:45.873Z,4.47
2023-08-09T17:32:11.993Z,4.80
2023-08-09T17:34:38.188Z,4.67
2023-08-09T17:37:04.599Z,4.47
2023-08-09T17:39:30.922Z,4.70
2023-08-09T17:41:57.048Z,4.73
2023-08-09T17:44:23.197Z,4.27
2023-08-09T17:46:49.334Z,4.50
2023-08-09T17:49:15.500Z,4.10
2023-08-09T17:51:41.635Z,4.30
2023-08-09T17:54:07.782Z,4.10
2023-08-09T17:56:33.924Z,4.30
2023-08-09T17:59:00.095Z,4.57
2023-08-09T18:01:26.279Z,4.40
2023-08-09T18:03:52.469Z,4.23
2023-08-09T18:06:18.872Z,3.73
2023-08-09T18:08:45.093Z,4.20
2023-08-09T18:11:11.246Z,4.03
2023-08-09T18:13:37.383Z,4.17
2023-08-09T18:16:03.586Z,4.40
2023-08-09T18:18:29.746Z,3.67
2023-08-09T18:20:55.899Z,3.60
2023-08-09T18:23:22.068Z,4.00
2023-08-09T18:25:48.212Z,3.40
2023-08-09T18:28:14.351Z,3.47
2023-08-09T18:30:40.536Z,3.23
2023-08-09T18:33:06.762Z,3.20
2023-08-09T18:35:32.926Z,2.80
2023-08-09T18:37:59.055Z,3.00
2023-08-09T18:40:25.201Z,3.00
2023-08-09T18:42:51.367Z,2.93
2023-08-09T18:45:17.560Z,3.20
2023-08-09T18:47:43.693Z,2.90
2023-08-09T18:50:09.876Z,2.63
2023-08-09T18:52:36.014Z,3.07
2023-08-09T18:55:02.171Z,3.27
2023-08-09T18:57:28.376Z,3.80
2023-08-09T18:59:54.520Z,3.33
2023-08-09T19:02:20.720Z,3.67
2023-08-09T19:04:46.992Z,3.43
2023-08-09T19:07:13.163Z,3.60
2023-08-09T19:09:39.296Z,3.70
2023-08-09T19:12:05.463Z,6.80
2023-08-09T19:14:31.614Z,10.83
2023-08-09T19:16:57.776Z,3.37
2023-08-09T19:19:23.908Z,2.90
2023-08-09T19:21:50.078Z,7.83
2023-08-09T19:24:16.270Z,8.17
2023-08-09T19:26:42.454Z,3.73
2023-08-09T19:29:08.608Z,9.53
2023-08-09T19:31:34.805Z,9.97
2023-08-09T19:34:00.946Z,4.23
2023-08-09T19:36:27.102Z,3.30
2023-08-09T19:38:53.255Z,7.73
2023-08-09T19:41:19.425Z,4.73
2023-08-09T19:43:45.574Z,19.53
2023-08-09T19:46:11.730Z,23.97
2023-08-09T19:48:37.876Z,6.37
2023-08-09T19:51:04.022Z,3.40
2023-08-09T19:53:30.165Z,3.20
2023-08-09T19:55:56.307Z,10.87
2023-08-09T19:58:22.442Z,8.30
2023-08-09T20:00:48.648Z,7.10
2023-08-09T20:03:14.860Z,12.30
2023-08-09T20:05:41.088Z,7.30
2023-08-09T20:08:07.245Z,10.57
2023-08-09T20:10:33.414Z,9.03
2023-08-09T20:12:59.560Z,10.80
2023-08-09T20:15:25.718Z,51.50
2023-08-09T20:17:51.878Z,65.70
2023-08-09T20:20:18.047Z,43.20
2023-08-09T20:22:44.207Z,49.60
2023-08-09T20:25:10.368Z,29.87
2023-08-09T20:27:36.514Z,31.97
2023-08-09T20:30:02.674Z,32.23
2023-08-09T20:32:28.909Z,19.90
2023-08-09T20:34:55.070Z,21.57
2023-08-09T20:37:21.222Z,16.57
2023-08-09T20:39:47.373Z,10.63
2023-08-09T20:42:13.532Z,6.30
2023-08-09T20:44:39.667Z,5.77
2023-08-09T20:47:06.736Z,7.40
2023-08-09T20:49:33.521Z,5.77
2023-08-09T20:51:59.659Z,7.13
2023-08-09T20:54:25.794Z,5.13
2023-08-09T20:56:51.953Z,4.27
2023-08-09T20:59:18.076Z,4.03
2023-08-09T21:01:44.333Z,4.63
2023-08-09T21:04:10.507Z,7.03
2023-08-09T21:06:36.634Z,6.20
2023-08-09T21:09:02.780Z,5.60
2023-08-09T21:11:28.930Z,4.83
2023-08-09T21:13:55.116Z,5.57
2023-08-09T21:16:21.475Z,5.00
2023-08-09T21:18:47.776Z,4.67
2023-08-09T21:21:14.648Z,5.60
2023-08-09T21:26:10.226Z,4.77
2023-08-09T21:28:36.379Z,5.10
2023-08-09T21:31:02.530Z,6.50
2023-08-09T21:33:28.689Z,6.73
2023-08-09T21:35:54.819Z,8.30
2023-08-09T21:38:20.959Z,5.50
2023-08-09T21:40:47.102Z,6.23
2023-08-09T21:43:13.260Z,5.27
2023-08-09T21:45:39.447Z,5.10
2023-08-09T21:48:05.647Z,4.40
2023-08-09T21:50:31.880Z,4.13
2023-08-09T21:52:58.047Z,4.27
2023-08-09T21:55:24.233Z,4.10
2023-08-09T21:57:50.370Z,3.97
2023-08-09T22:00:16.556Z,4.70
2023-08-09T22:02:42.733Z,4.77
2023-08-09T22:05:08.909Z,4.50
2023-08-09T22:07:35.054Z,5.43
2023-08-09T22:10:01.186Z,5.57
2023-08-09T22:12:27.350Z,5.60
2023-08-09T22:14:53.496Z,4.07
2023-08-09T22:17:19.690Z,4.00
2023-08-09T22:19:45.815Z,4.20
2023-08-09T22:22:14.787Z,4.10
2023-08-09T22:24:43.798Z,4.60
2023-08-09T22:27:09.957Z,4.20
2023-08-09T22:29:36.105Z,4.00
2023-08-09T22:32:02.515Z,3.90
2023-08-09T22:34:28.936Z,4.13
2023-08-09T22:36:55.072Z,4.20
2023-08-09T22:39:21.215Z,3.87
2023-08-09T22:41:47.373Z,4.40
2023-08-09T22:44:13.519Z,4.60
2023-08-09T22:46:39.665Z,4.53
2023-08-09T22:49:05.813Z,4.47
2023-08-09T22:51:31.954Z,4.90
2023-08-09T22:53:58.095Z,4.30
2023-08-09T22:56:24.256Z,4.50
2023-08-09T22:58:50.403Z,4.47
2023-08-09T23:01:16.544Z,4.80
2023-08-09T23:03:42.742Z,5.00
2023-08-09T23:06:08.875Z,4.40
2023-08-09T23:08:35.031Z,4.10
2023-08-09T23:11:01.157Z,4.20
2023-08-09T23:13:27.355Z,4.53
2023-08-09T23:15:53.662Z,4.80
2023-08-09T23:18:19.881Z,4.50
2023-08-09T23:20:46.039Z,4.20
2023-08-09T23:23:12.180Z,4.63
2023-08-09T23:25:38.329Z,4.50
2023-08-09T23:28:04.495Z,4.43
2023-08-09T23:30:30.670Z,4.23
2023-08-09T23:32:56.830Z,4.07
2023-08-09T23:35:23.019Z,4.20
2023-08-09T23:37:49.140Z,4.20
2023-08-09T23:40:15.285Z,4.30
2023-08-09T23:42:41.473Z,4.33
2023-08-09T23:45:07.668Z,4.20
2023-08-09T23:47:33.862Z,4.50
2023-08-09T23:50:00.032Z,3.60
2023-08-09T23:52:27.328Z,3.70
2023-08-09T23:54:54.566Z,4.03
2023-08-09T23:57:20.699Z,4.30
2023-08-09T23:59:46.838Z,3.90
